createdAt,value
2017-10-02T00:00:37.614Z,0.00
2017-10-02T00:01:37.572Z,0.00
2017-10-02T00:02:37.534Z,0.00
2017-10-02T00:03:37.506Z,0.00
2017-10-02T00:04:37.469Z,0.00
2017-10-02T00:05:37.439Z,0.00
2017-10-02T00:06:37.407Z,0.00
2017-10-02T00:07:37.360Z,0.00
2017-10-02T00:08:37.321Z,0.00
2017-10-02T00:09:37.283Z,0.00
2017-10-02T00:10:37.250Z,0.00
2017-10-02T00:11:37.222Z,0.00
2017-10-02T00:12:37.190Z,0.00
2017-10-02T00:13:37.142Z,0.00
2017-10-02T00:14:37.105Z,0.00
2017-10-02T00:15:37.070Z,0.00
2017-10-02T00:16:37.032Z,0.00
2017-10-02T00:17:37.004Z,0.00
2017-10-02T00:18:36.960Z,0.00
2017-10-02T00:19:36.936Z,0.00
2017-10-02T00:20:36.888Z,0.00
2017-10-02T00:21:36.849Z,0.00
2017-10-02T00:22:36.815Z,0.00
2017-10-02T00:23:36.779Z,0.00
2017-10-02T00:24:36.747Z,0.00
2017-10-02T00:25:36.715Z,0.00
2017-10-02T00:26:36.680Z,0.00
2017-10-02T00:27:36.657Z,0.00
2017-10-02T00:28:36.615Z,0.00
2017-10-02T00:29:36.597Z,0.00
2017-10-02T00:30:36.526Z,0.00
2017-10-02T00:31:36.508Z,0.00
2017-10-02T00:32:36.457Z,0.00
2017-10-02T00:33:36.419Z,0.00
2017-10-02T00:34:36.396Z,0.00
2017-10-02T00:35:36.343Z,0.00
2017-10-02T00:36:36.307Z,0.00
2017-10-02T00:37:36.272Z,0.00
2017-10-02T00:38:36.239Z,0.00
2017-10-02T00:39:36.256Z,0.00
2017-10-02T00:40:36.165Z,0.00
2017-10-02T00:41:36.136Z,0.00
2017-10-02T00:42:36.101Z,0.00
2017-10-02T00:43:36.063Z,0.00
2017-10-02T00:44:36.023Z,0.00
2017-10-02T00:45:35.983Z,0.00
2017-10-02T00:46:35.948Z,0.00
2017-10-02T00:47:35.917Z,0.00
2017-10-02T00:48:35.878Z,0.00
2017-10-02T00:49:35.838Z,0.00
2017-10-02T00:50:35.801Z,0.00
2017-10-02T00:51:35.763Z,0.00
2017-10-02T00:52:35.734Z,0.00
2017-10-02T00:53:35.691Z,0.00
2017-10-02T00:54:35.658Z,0.00
2017-10-02T00:55:35.630Z,0.00
2017-10-02T00:56:35.584Z,0.00
2017-10-02T00:57:35.549Z,0.00
2017-10-02T00:58:35.512Z,0.00
2017-10-02T00:59:35.477Z,0.00
2017-10-02T01:00:35.438Z,0.00
2017-10-02T01:01:35.402Z,0.00
2017-10-02T01:02:35.367Z,0.00
2017-10-02T01:03:35.332Z,0.00
2017-10-02T01:04:35.290Z,0.00
2017-10-02T01:05:35.258Z,0.00
2017-10-02T01:06:35.217Z,0.00
2017-10-02T01:07:35.184Z,0.00
2017-10-02T01:08:35.146Z,0.00
2017-10-02T01:09:35.108Z,0.00
2017-10-02T01:10:35.075Z,0.00
2017-10-02T01:11:35.038Z,0.00
2017-10-02T01:12:35.003Z,0.00
2017-10-02T01:13:34.964Z,0.00
2017-10-02T01:14:34.929Z,0.00
2017-10-02T01:15:34.890Z,0.00
2017-10-02T01:16:34.863Z,0.00
2017-10-02T01:17:34.819Z,0.00
2017-10-02T01:18:34.780Z,0.00
2017-10-02T01:19:34.747Z,0.00
2017-10-02T01:20:34.712Z,0.00
2017-10-02T01:21:34.674Z,0.00
2017-10-02T01:22:34.641Z,0.00
2017-10-02T01:23:34.609Z,0.00
2017-10-02T01:24:34.566Z,0.00
2017-10-02T01:25:34.526Z,0.00
2017-10-02T01:26:34.503Z,0.00
2017-10-02T01:27:34.457Z,0.00
2017-10-02T01:28:34.418Z,0.00
2017-10-02T01:29:34.392Z,0.00
2017-10-02T01:30:34.350Z,0.00
2017-10-02T01:31:34.310Z,0.00
2017-10-02T01:32:34.281Z,0.00
2017-10-02T01:33:34.239Z,0.00
2017-10-02T01:34:34.201Z,0.00
2017-10-02T01:35:34.162Z,0.00
2017-10-02T01:36:34.129Z,0.00
2017-10-02T01:37:34.091Z,0.00
2017-10-02T01:38:34.070Z,0.00
2017-10-02T01:39:34.022Z,0.00
2017-10-02T01:40:33.984Z,0.00
2017-10-02T01:41:33.952Z,0.00
2017-10-02T01:42:33.911Z,0.00
2017-10-02T01:43:33.873Z,0.00
2017-10-02T01:44:33.838Z,0.00
2017-10-02T01:45:33.799Z,0.00
2017-10-02T01:46:33.764Z,0.00
2017-10-02T01:47:33.727Z,0.00
2017-10-02T01:48:33.696Z,0.00
2017-10-02T01:49:33.656Z,0.00
2017-10-02T01:50:33.618Z,0.00
2017-10-02T01:51:33.586Z,0.00
2017-10-02T01:52:33.554Z,0.00
2017-10-02T01:53:33.518Z,0.00
2017-10-02T01:54:33.472Z,0.00
2017-10-02T01:55:33.436Z,0.00
2017-10-02T01:56:33.400Z,0.00
2017-10-02T01:57:33.361Z,0.00
2017-10-02T01:58:33.342Z,0.00
2017-10-02T01:59:33.291Z,0.00
2017-10-02T02:00:33.253Z,0.00
2017-10-02T02:01:33.215Z,0.00
2017-10-02T02:02:33.181Z,0.00
2017-10-02T02:03:33.141Z,0.00
2017-10-02T02:04:33.107Z,0.00
2017-10-02T02:05:33.076Z,0.00
2017-10-02T02:06:33.037Z,0.00
2017-10-02T02:07:32.995Z,0.00
2017-10-02T02:08:32.961Z,0.00
2017-10-02T02:09:32.924Z,0.00
2017-10-02T02:10:32.885Z,0.00
2017-10-02T02:11:32.850Z,0.00
2017-10-02T02:12:32.815Z,0.00
2017-10-02T02:13:32.774Z,0.00
2017-10-02T02:14:32.751Z,0.00
2017-10-02T02:15:32.707Z,0.00
2017-10-02T02:16:32.666Z,0.00
2017-10-02T02:17:32.628Z,0.00
2017-10-02T02:18:32.593Z,0.00
2017-10-02T02:19:32.557Z,0.00
2017-10-02T02:20:32.520Z,0.00
2017-10-02T02:21:32.487Z,0.00
2017-10-02T02:22:32.450Z,0.00
2017-10-02T02:23:32.407Z,0.00
2017-10-02T02:24:32.373Z,0.00
2017-10-02T02:25:32.340Z,0.00
2017-10-02T02:26:32.298Z,0.00
2017-10-02T02:27:32.268Z,0.00
2017-10-02T02:28:32.231Z,0.00
2017-10-02T02:29:32.189Z,0.00
2017-10-02T02:30:32.152Z,0.00
2017-10-02T02:31:32.119Z,0.00
2017-10-02T02:32:32.083Z,0.00
2017-10-02T02:33:32.041Z,0.00
2017-10-02T02:34:32.007Z,0.00
2017-10-02T02:35:31.973Z,0.00
2017-10-02T02:36:31.941Z,0.00
2017-10-02T02:37:31.895Z,0.00
2017-10-02T02:38:31.860Z,0.00
2017-10-02T02:39:31.827Z,0.00
2017-10-02T02:40:31.786Z,0.00
2017-10-02T02:41:31.749Z,0.00
2017-10-02T02:42:31.714Z,0.00
2017-10-02T02:43:31.678Z,0.00
2017-10-02T02:44:31.647Z,0.00
2017-10-02T02:45:31.603Z,0.00
2017-10-02T02:46:31.567Z,0.00
2017-10-02T02:47:31.531Z,0.00
2017-10-02T02:48:31.495Z,0.00
2017-10-02T02:49:31.458Z,0.00
2017-10-02T02:50:31.419Z,0.00
2017-10-02T02:51:31.387Z,0.00
2017-10-02T02:52:31.350Z,0.00
2017-10-02T02:53:31.310Z,0.00
2017-10-02T02:54:31.272Z,0.00
2017-10-02T02:55:31.238Z,0.00
2017-10-02T02:56:31.200Z,0.00
2017-10-02T02:57:31.162Z,0.00
2017-10-02T02:58:31.127Z,0.00
2017-10-02T02:59:31.092Z,0.00
2017-10-02T03:00:31.052Z,0.00
2017-10-02T03:01:31.019Z,0.00
2017-10-02T03:02:30.977Z,0.00
2017-10-02T03:03:30.948Z,0.00
2017-10-02T03:04:30.908Z,0.00
2017-10-02T03:05:30.873Z,0.00
2017-10-02T03:06:30.833Z,0.00
2017-10-02T03:07:30.803Z,0.00
2017-10-02T03:08:30.767Z,0.00
2017-10-02T03:09:30.721Z,0.00
2017-10-02T03:10:30.682Z,0.00
2017-10-02T03:11:30.647Z,0.00
2017-10-02T03:12:30.612Z,0.00
2017-10-02T03:13:30.584Z,0.00
2017-10-02T03:14:30.538Z,0.00
2017-10-02T03:15:30.500Z,0.00
2017-10-02T03:16:30.462Z,0.00
2017-10-02T03:17:30.425Z,0.00
2017-10-02T03:18:30.389Z,0.00
2017-10-02T03:19:30.359Z,0.00
2017-10-02T03:20:30.324Z,0.00
2017-10-02T03:21:30.277Z,0.00
2017-10-02T03:22:30.242Z,0.00
2017-10-02T03:23:30.203Z,0.00
2017-10-02T03:24:30.168Z,0.00
2017-10-02T03:25:30.132Z,0.00
2017-10-02T03:26:30.095Z,0.00
2017-10-02T03:27:30.065Z,0.00
2017-10-02T03:28:30.022Z,0.00
2017-10-02T03:29:29.988Z,0.00
2017-10-02T03:30:29.951Z,0.00
2017-10-02T03:31:29.912Z,0.00
2017-10-02T03:32:29.871Z,0.00
2017-10-02T03:33:29.835Z,0.00
2017-10-02T03:34:29.804Z,0.00
2017-10-02T03:35:29.761Z,0.00
2017-10-02T03:36:29.728Z,0.00
2017-10-02T03:37:29.686Z,0.00
2017-10-02T03:38:29.653Z,0.00
2017-10-02T03:39:29.616Z,0.00
2017-10-02T03:40:29.586Z,0.00
2017-10-02T03:41:29.543Z,0.00
2017-10-02T03:42:29.506Z,0.00
2017-10-02T03:43:29.471Z,0.00
2017-10-02T03:44:29.432Z,0.00
2017-10-02T03:45:29.394Z,0.00
2017-10-02T03:46:29.371Z,0.00
2017-10-02T03:47:29.326Z,0.00
2017-10-02T03:48:29.285Z,0.00
2017-10-02T03:49:29.247Z,0.00
2017-10-02T03:50:29.210Z,0.00
2017-10-02T03:51:29.172Z,0.00
2017-10-02T03:52:29.136Z,0.00
2017-10-02T03:53:29.111Z,0.00
2017-10-02T03:54:29.066Z,0.00
2017-10-02T03:55:29.028Z,0.00
2017-10-02T03:56:28.992Z,0.00
2017-10-02T03:57:28.954Z,0.00
2017-10-02T03:58:28.914Z,0.00
2017-10-02T03:59:28.882Z,0.00
2017-10-02T04:00:28.847Z,0.00
2017-10-02T04:01:28.806Z,0.00
2017-10-02T04:02:28.767Z,0.00
2017-10-02T04:03:28.731Z,0.00
2017-10-02T04:04:28.694Z,0.00
2017-10-02T04:05:28.657Z,0.00
2017-10-02T04:06:28.621Z,0.00
2017-10-02T04:07:28.588Z,0.00
2017-10-02T04:08:28.550Z,0.00
2017-10-02T04:09:28.510Z,0.00
2017-10-02T04:10:28.474Z,0.00
2017-10-02T04:11:28.444Z,0.00
2017-10-02T04:12:28.402Z,0.00
2017-10-02T04:13:28.377Z,0.00
2017-10-02T04:14:28.332Z,0.00
2017-10-02T04:15:28.294Z,0.00
2017-10-02T04:16:28.255Z,0.00
2017-10-02T04:17:28.214Z,0.00
2017-10-02T04:18:28.204Z,0.00
2017-10-02T04:19:28.148Z,0.00
2017-10-02T04:20:28.106Z,0.00
2017-10-02T04:21:28.071Z,0.00
2017-10-02T04:22:28.033Z,0.00
2017-10-02T04:23:27.998Z,0.00
2017-10-02T04:24:27.959Z,0.00
2017-10-02T04:25:27.935Z,4.00
2017-10-02T04:26:27.887Z,4.00
2017-10-02T04:27:27.849Z,0.00
2017-10-02T04:28:27.815Z,0.00
2017-10-02T04:29:27.787Z,0.00
2017-10-02T04:30:27.747Z,4.00
2017-10-02T04:31:27.703Z,0.00
2017-10-02T04:32:27.665Z,4.00
2017-10-02T04:33:27.676Z,0.00
2017-10-02T04:34:27.590Z,4.00
2017-10-02T04:35:27.560Z,0.00
2017-10-02T04:36:27.519Z,4.00
2017-10-02T04:37:27.490Z,4.00
2017-10-02T04:38:27.475Z,4.00
2017-10-02T04:39:27.435Z,4.00
2017-10-02T04:40:27.388Z,8.00
2017-10-02T04:41:27.334Z,8.00
2017-10-02T04:42:27.300Z,8.00
2017-10-02T04:43:27.260Z,8.00
2017-10-02T04:44:27.230Z,8.00
2017-10-02T04:45:27.196Z,12.00
2017-10-02T04:46:27.149Z,16.00
2017-10-02T04:47:27.115Z,16.00
2017-10-02T04:48:27.108Z,20.00
2017-10-02T04:49:27.043Z,24.00
2017-10-02T04:50:27.015Z,28.00
2017-10-02T04:51:26.969Z,32.00
2017-10-02T04:52:26.938Z,44.00
2017-10-02T04:53:26.899Z,52.00
2017-10-02T04:54:26.893Z,60.00
2017-10-02T04:55:26.819Z,72.00
2017-10-02T04:56:26.789Z,88.00
2017-10-02T04:57:26.743Z,104.00
2017-10-02T04:58:26.737Z,120.00
2017-10-02T04:59:26.673Z,140.00
2017-10-02T05:00:26.635Z,160.00
2017-10-02T05:01:26.595Z,184.00
2017-10-02T05:02:26.564Z,208.00
2017-10-02T05:03:26.529Z,232.00
2017-10-02T05:04:26.491Z,260.00
2017-10-02T05:05:26.455Z,292.00
2017-10-02T05:06:26.415Z,320.00
2017-10-02T05:07:26.383Z,348.00
2017-10-02T05:08:26.341Z,376.00
2017-10-02T05:09:26.306Z,400.00
2017-10-02T05:10:26.273Z,416.00
2017-10-02T05:11:26.230Z,440.00
2017-10-02T05:12:26.195Z,476.00
2017-10-02T05:13:26.162Z,520.00
2017-10-02T05:14:26.120Z,568.00
2017-10-02T05:15:26.097Z,608.00
2017-10-02T05:16:26.051Z,648.00
2017-10-02T05:17:26.013Z,692.00
2017-10-02T05:18:25.975Z,736.00
2017-10-02T05:19:25.935Z,788.00
2017-10-02T05:20:25.902Z,848.00
2017-10-02T05:21:25.865Z,932.00
2017-10-02T05:22:25.830Z,1056.00
2017-10-02T05:23:25.792Z,1204.00
2017-10-02T05:24:25.760Z,1304.00
2017-10-02T05:25:25.727Z,1420.00
2017-10-02T05:26:25.679Z,1552.00
2017-10-02T05:27:25.642Z,1712.00
2017-10-02T05:28:25.606Z,1884.00
2017-10-02T05:29:25.572Z,2052.00
2017-10-02T05:30:25.536Z,2280.00
2017-10-02T05:31:25.499Z,2548.00
2017-10-02T05:32:25.460Z,2732.00
2017-10-02T05:33:25.424Z,2960.00
2017-10-02T05:34:25.384Z,3100.00
2017-10-02T05:35:25.349Z,3328.00
2017-10-02T05:36:25.315Z,3500.00
2017-10-02T05:37:25.279Z,3852.00
2017-10-02T05:38:25.246Z,3976.00
2017-10-02T05:39:25.207Z,4108.00
2017-10-02T05:40:25.173Z,4072.00
2017-10-02T05:41:25.133Z,4248.00
2017-10-02T05:42:25.102Z,4696.00
2017-10-02T05:43:25.060Z,5068.00
2017-10-02T05:44:25.026Z,5048.00
2017-10-02T05:45:24.990Z,4888.00
2017-10-02T05:46:24.954Z,5056.00
2017-10-02T05:47:24.921Z,5452.00
2017-10-02T05:48:24.889Z,5004.00
2017-10-02T05:49:24.849Z,3796.00
2017-10-02T05:50:24.817Z,2784.00
2017-10-02T05:51:24.779Z,2560.00
2017-10-02T05:52:24.743Z,2388.00
2017-10-02T05:53:24.714Z,2264.00
2017-10-02T05:54:24.682Z,2244.00
2017-10-02T05:55:24.649Z,2264.00
2017-10-02T05:56:24.652Z,2316.00
2017-10-02T05:57:24.573Z,2312.00
2017-10-02T05:58:24.543Z,2292.00
2017-10-02T05:59:24.505Z,2312.00
2017-10-02T06:00:24.463Z,2320.00
2017-10-02T06:01:24.429Z,2332.00
2017-10-02T06:02:24.391Z,2360.00
2017-10-02T06:03:24.358Z,2396.00
2017-10-02T06:04:24.324Z,2444.00
2017-10-02T06:05:24.285Z,2492.00
2017-10-02T06:06:24.255Z,2552.00
2017-10-02T06:07:24.215Z,2620.00
2017-10-02T06:08:24.180Z,2692.00
2017-10-02T06:09:24.142Z,2772.00
2017-10-02T06:10:24.113Z,2860.00
2017-10-02T06:11:24.073Z,2952.00
2017-10-02T06:12:24.053Z,3052.00
2017-10-02T06:13:23.999Z,3116.00
2017-10-02T06:14:23.973Z,3192.00
2017-10-02T06:15:23.930Z,3288.00
2017-10-02T06:16:23.898Z,3384.00
2017-10-02T06:17:23.861Z,3456.00
2017-10-02T06:18:23.825Z,3536.00
2017-10-02T06:19:23.788Z,3616.00
2017-10-02T06:20:23.755Z,3700.00
2017-10-02T06:21:23.714Z,3776.00
2017-10-02T06:22:23.685Z,3860.00
2017-10-02T06:23:23.645Z,3940.00
2017-10-02T06:24:23.611Z,4020.00
2017-10-02T06:25:23.576Z,4088.00
2017-10-02T06:26:23.538Z,4168.00
2017-10-02T06:27:23.505Z,4240.00
2017-10-02T06:28:23.476Z,4312.00
2017-10-02T06:29:23.434Z,4368.00
2017-10-02T06:30:23.397Z,4424.00
2017-10-02T06:31:23.361Z,4468.00
2017-10-02T06:32:23.325Z,4508.00
2017-10-02T06:33:23.290Z,4548.00
2017-10-02T06:34:23.261Z,4584.00
2017-10-02T06:35:23.216Z,4628.00
2017-10-02T06:36:23.185Z,4668.00
2017-10-02T06:37:23.154Z,4704.00
2017-10-02T06:38:23.111Z,4736.00
2017-10-02T06:39:23.079Z,4784.00
2017-10-02T06:40:23.066Z,4820.00
2017-10-02T06:41:23.008Z,4860.00
2017-10-02T06:42:22.975Z,4904.00
2017-10-02T06:43:22.935Z,4940.00
2017-10-02T06:44:22.902Z,4996.00
2017-10-02T06:45:22.861Z,5060.00
2017-10-02T06:46:22.831Z,5148.00
2017-10-02T06:47:22.791Z,5248.00
2017-10-02T06:48:22.759Z,5348.00
2017-10-02T06:49:22.723Z,5476.00
2017-10-02T06:50:22.685Z,5576.00
2017-10-02T06:51:22.654Z,5624.00
2017-10-02T06:52:22.618Z,5692.00
2017-10-02T06:53:22.598Z,5824.00
2017-10-02T06:54:22.542Z,5872.00
2017-10-02T06:55:22.522Z,5932.00
2017-10-02T06:56:22.472Z,6060.00
2017-10-02T06:57:22.445Z,6084.00
2017-10-02T06:58:22.403Z,6092.00
2017-10-02T06:59:22.380Z,6132.00
2017-10-02T07:00:22.347Z,6152.00
2017-10-02T07:01:22.317Z,6208.00
2017-10-02T07:02:22.262Z,6208.00
2017-10-02T07:03:22.245Z,6236.00
2017-10-02T07:04:22.194Z,6248.00
2017-10-02T07:05:22.178Z,6252.00
2017-10-02T07:06:22.126Z,6244.00
2017-10-02T07:07:22.096Z,6236.00
2017-10-02T07:08:22.069Z,6224.00
2017-10-02T07:09:22.027Z,6216.00
2017-10-02T07:10:21.983Z,6224.00
2017-10-02T07:11:21.951Z,6240.00
2017-10-02T07:12:21.919Z,6240.00
2017-10-02T07:13:21.875Z,6244.00
2017-10-02T07:14:21.856Z,6232.00
2017-10-02T07:15:21.833Z,6220.00
2017-10-02T07:16:21.789Z,6220.00
2017-10-02T07:17:21.745Z,6216.00
2017-10-02T07:18:21.705Z,6236.00
2017-10-02T07:19:21.668Z,6256.00
2017-10-02T07:20:21.635Z,6288.00
2017-10-02T07:21:21.623Z,6336.00
2017-10-02T07:22:21.567Z,6392.00
2017-10-02T07:23:21.532Z,6456.00
2017-10-02T07:24:21.509Z,6524.00
2017-10-02T07:25:21.459Z,6584.00
2017-10-02T07:26:21.422Z,6648.00
2017-10-02T07:27:21.390Z,6696.00
2017-10-02T07:28:21.352Z,6724.00
2017-10-02T07:29:21.319Z,6748.00
2017-10-02T07:30:21.285Z,6768.00
2017-10-02T07:31:21.246Z,6784.00
2017-10-02T07:32:21.218Z,6796.00
2017-10-02T07:33:21.178Z,6808.00
2017-10-02T07:34:21.139Z,6812.00
2017-10-02T07:35:21.115Z,6820.00
2017-10-02T07:36:21.076Z,6836.00
2017-10-02T07:37:21.046Z,6856.00
2017-10-02T07:38:21.007Z,6884.00
2017-10-02T07:39:20.968Z,6904.00
2017-10-02T07:40:20.937Z,6952.00
2017-10-02T07:41:20.905Z,6996.00
2017-10-02T07:42:20.871Z,7052.00
2017-10-02T07:43:20.832Z,7108.00
2017-10-02T07:44:20.799Z,7180.00
2017-10-02T07:45:20.767Z,7252.00
2017-10-02T07:46:20.736Z,7324.00
2017-10-02T07:47:20.695Z,7404.00
2017-10-02T07:48:20.659Z,7476.00
2017-10-02T07:49:20.643Z,7548.00
2017-10-02T07:50:20.596Z,7620.00
2017-10-02T07:51:20.562Z,7696.00
2017-10-02T07:52:20.521Z,7764.00
2017-10-02T07:53:20.490Z,7824.00
2017-10-02T07:54:20.460Z,7900.00
2017-10-02T07:55:20.420Z,7976.00
2017-10-02T07:56:20.391Z,8064.00
2017-10-02T07:57:20.354Z,8156.00
2017-10-02T07:58:20.316Z,8252.00
2017-10-02T07:59:20.285Z,8360.00
2017-10-02T08:00:20.271Z,8452.00
2017-10-02T08:01:20.216Z,8544.00
2017-10-02T08:02:20.177Z,8636.00
2017-10-02T08:03:20.152Z,8700.00
2017-10-02T08:04:20.112Z,8788.00
2017-10-02T08:05:20.076Z,8876.00
2017-10-02T08:06:20.042Z,8968.00
2017-10-02T08:07:20.008Z,9064.00
2017-10-02T08:08:19.975Z,9184.00
2017-10-02T08:09:19.947Z,9224.00
2017-10-02T08:10:19.907Z,9300.00
2017-10-02T08:11:19.871Z,9420.00
2017-10-02T08:12:19.839Z,9480.00
2017-10-02T08:13:19.815Z,9476.00
2017-10-02T08:14:19.769Z,9504.00
2017-10-02T08:15:19.736Z,9504.00
2017-10-02T08:16:19.703Z,9472.00
2017-10-02T08:17:19.669Z,9444.00
2017-10-02T08:18:19.634Z,9376.00
2017-10-02T08:19:19.604Z,9292.00
2017-10-02T08:20:19.568Z,9220.00
2017-10-02T08:21:19.535Z,9132.00
2017-10-02T08:22:19.502Z,9044.00
2017-10-02T08:23:19.474Z,9008.00
2017-10-02T08:24:19.431Z,8980.00
2017-10-02T08:25:19.399Z,8956.00
2017-10-02T08:26:19.366Z,8812.00
2017-10-02T08:27:19.332Z,8724.00
2017-10-02T08:28:19.300Z,8728.00
2017-10-02T08:29:19.271Z,8780.00
2017-10-02T08:30:19.231Z,8844.00
2017-10-02T08:31:19.202Z,8972.00
2017-10-02T08:32:19.167Z,9152.00
2017-10-02T08:33:19.130Z,9348.00
2017-10-02T08:34:19.098Z,9572.00
2017-10-02T08:35:19.070Z,9784.00
2017-10-02T08:36:19.030Z,9964.00
2017-10-02T08:37:19.001Z,10064.00
2017-10-02T08:38:18.970Z,10132.00
2017-10-02T08:39:18.939Z,10184.00
2017-10-02T08:40:18.900Z,10316.00
2017-10-02T08:41:18.867Z,10448.00
2017-10-02T08:42:18.834Z,10496.00
2017-10-02T08:43:18.807Z,10524.00
2017-10-02T08:44:18.765Z,10560.00
2017-10-02T08:45:18.734Z,10656.00
2017-10-02T08:46:18.706Z,10732.00
2017-10-02T08:47:18.674Z,10700.00
2017-10-02T08:48:18.630Z,10620.00
2017-10-02T08:49:18.610Z,10572.00
2017-10-02T08:50:18.570Z,10524.00
2017-10-02T08:51:18.536Z,10424.00
2017-10-02T08:52:18.500Z,10316.00
2017-10-02T08:53:18.470Z,10184.00
2017-10-02T08:54:18.433Z,10064.00
2017-10-02T08:55:18.398Z,9896.00
2017-10-02T08:56:18.372Z,9744.00
2017-10-02T08:57:18.333Z,9556.00
2017-10-02T08:58:18.301Z,9388.00
2017-10-02T08:59:18.275Z,9236.00
2017-10-02T09:00:18.235Z,9100.00
2017-10-02T09:01:18.200Z,8976.00
2017-10-02T09:02:18.165Z,8868.00
2017-10-02T09:03:18.144Z,8792.00
2017-10-02T09:04:18.103Z,8720.00
2017-10-02T09:05:18.069Z,8684.00
2017-10-02T09:06:18.040Z,8648.00
2017-10-02T09:07:18.016Z,8612.00
2017-10-02T09:08:17.974Z,8612.00
2017-10-02T09:09:17.938Z,8588.00
2017-10-02T09:10:17.909Z,8560.00
2017-10-02T09:11:17.891Z,8536.00
2017-10-02T09:12:17.848Z,8524.00
2017-10-02T09:13:17.808Z,8516.00
2017-10-02T09:14:17.774Z,8512.00
2017-10-02T09:15:17.740Z,8520.00
2017-10-02T09:16:17.716Z,8528.00
2017-10-02T09:17:17.678Z,8564.00
2017-10-02T09:18:17.651Z,8620.00
2017-10-02T09:19:17.611Z,8728.00
2017-10-02T09:20:17.579Z,8904.00
2017-10-02T09:21:17.547Z,9160.00
2017-10-02T09:22:17.513Z,9436.00
2017-10-02T09:23:17.483Z,9692.00
2017-10-02T09:24:17.449Z,9932.00
2017-10-02T09:25:17.420Z,10124.00
2017-10-02T09:26:17.381Z,10264.00
2017-10-02T09:27:17.357Z,10380.00
2017-10-02T09:28:17.317Z,10440.00
2017-10-02T09:29:17.289Z,10504.00
2017-10-02T09:30:17.254Z,10528.00
2017-10-02T09:31:17.226Z,10552.00
2017-10-02T09:32:17.190Z,10552.00
2017-10-02T09:33:17.152Z,10508.00
2017-10-02T09:34:17.122Z,10440.00
2017-10-02T09:35:17.104Z,10368.00
2017-10-02T09:36:17.066Z,10316.00
2017-10-02T09:37:17.027Z,10316.00
2017-10-02T09:38:17.002Z,10280.00
2017-10-02T09:39:16.967Z,10216.00
2017-10-02T09:40:16.927Z,10132.00
2017-10-02T09:41:16.898Z,10048.00
2017-10-02T09:42:16.866Z,9952.00
2017-10-02T09:43:16.844Z,9812.00
2017-10-02T09:44:16.800Z,9684.00
2017-10-02T09:45:16.766Z,9540.00
2017-10-02T09:46:16.735Z,9436.00
2017-10-02T09:47:16.721Z,9372.00
2017-10-02T09:48:16.676Z,9332.00
2017-10-02T09:49:16.642Z,9376.00
2017-10-02T09:50:16.635Z,9440.00
2017-10-02T09:51:16.588Z,9528.00
2017-10-02T09:52:16.547Z,9652.00
2017-10-02T09:53:16.511Z,9796.00
2017-10-02T09:54:16.475Z,9912.00
2017-10-02T09:55:16.452Z,10024.00
2017-10-02T09:56:16.414Z,10132.00
2017-10-02T09:57:16.389Z,10220.00
2017-10-02T09:58:16.376Z,10328.00
2017-10-02T09:59:16.348Z,10468.00
2017-10-02T10:00:16.290Z,10648.00
2017-10-02T10:01:16.251Z,10784.00
2017-10-02T10:02:16.220Z,10920.00
2017-10-02T10:03:16.187Z,11060.00
2017-10-02T10:04:16.156Z,11200.00
2017-10-02T10:05:16.122Z,11316.00
2017-10-02T10:06:16.098Z,11432.00
2017-10-02T10:07:16.086Z,11532.00
2017-10-02T10:08:16.035Z,11624.00
2017-10-02T10:09:16.010Z,11676.00
2017-10-02T10:10:15.962Z,11696.00
2017-10-02T10:11:15.933Z,11644.00
2017-10-02T10:12:15.904Z,11492.00
2017-10-02T10:13:15.868Z,11368.00
2017-10-02T10:14:15.836Z,11192.00
2017-10-02T10:15:15.806Z,11012.00
2017-10-02T10:16:15.796Z,10804.00
2017-10-02T10:17:15.741Z,10616.00
2017-10-02T10:18:15.707Z,10444.00
2017-10-02T10:19:15.677Z,10300.00
2017-10-02T10:20:15.645Z,10172.00
2017-10-02T10:21:15.622Z,9972.00
2017-10-02T10:22:15.585Z,9812.00
2017-10-02T10:23:15.549Z,9596.00
2017-10-02T10:24:15.522Z,9404.00
2017-10-02T10:25:15.482Z,9228.00
2017-10-02T10:26:15.454Z,9164.00
2017-10-02T10:27:15.455Z,9076.00
2017-10-02T10:28:15.403Z,8908.00
2017-10-02T10:29:15.358Z,8732.00
2017-10-02T10:30:15.329Z,8496.00
2017-10-02T10:31:15.327Z,8284.00
2017-10-02T10:32:15.270Z,8116.00
2017-10-02T10:33:15.239Z,7776.00
2017-10-02T10:34:15.209Z,7416.00
2017-10-02T10:35:15.181Z,7076.00
2017-10-02T10:36:15.148Z,6712.00
2017-10-02T10:37:15.108Z,6276.00
2017-10-02T10:38:15.082Z,6008.00
2017-10-02T10:39:15.045Z,5820.00
2017-10-02T10:40:15.017Z,5596.00
2017-10-02T10:41:14.982Z,5328.00
2017-10-02T10:42:14.962Z,5252.00
2017-10-02T10:43:14.916Z,5200.00
2017-10-02T10:44:14.892Z,4936.00
2017-10-02T10:45:14.891Z,4676.00
2017-10-02T10:46:14.820Z,4524.00
2017-10-02T10:47:14.791Z,4388.00
2017-10-02T10:48:14.765Z,4272.00
2017-10-02T10:49:14.729Z,4152.00
2017-10-02T10:50:14.698Z,4020.00
2017-10-02T10:51:14.662Z,3856.00
2017-10-02T10:52:14.631Z,3800.00
2017-10-02T10:53:14.599Z,3708.00
2017-10-02T10:54:14.565Z,3712.00
2017-10-02T10:55:14.533Z,3672.00
2017-10-02T10:56:14.504Z,3628.00
2017-10-02T10:57:14.474Z,3580.00
2017-10-02T10:58:14.440Z,3584.00
2017-10-02T10:59:14.419Z,3676.00
2017-10-02T11:00:14.375Z,3736.00
2017-10-02T11:01:14.351Z,3688.00
2017-10-02T11:02:14.309Z,3520.00
2017-10-02T11:03:14.277Z,3324.00
2017-10-02T11:04:14.254Z,3216.00
2017-10-02T11:05:14.221Z,3132.00
2017-10-02T11:06:14.184Z,3016.00
2017-10-02T11:07:14.159Z,2936.00
2017-10-02T11:08:14.115Z,2908.00
2017-10-02T11:09:14.085Z,2936.00
2017-10-02T11:10:14.052Z,2948.00
2017-10-02T11:11:14.021Z,3008.00
2017-10-02T11:12:13.995Z,3164.00
2017-10-02T11:13:13.964Z,3340.00
2017-10-02T11:14:13.926Z,3428.00
2017-10-02T11:15:13.899Z,3456.00
2017-10-02T11:16:13.866Z,3548.00
2017-10-02T11:17:13.834Z,3588.00
2017-10-02T11:18:13.792Z,3704.00
2017-10-02T11:19:13.767Z,3756.00
2017-10-02T11:20:13.730Z,3756.00
2017-10-02T11:21:13.689Z,3828.00
2017-10-02T11:22:13.685Z,3856.00
2017-10-02T11:23:13.644Z,3872.00
2017-10-02T11:24:13.604Z,3640.00
2017-10-02T11:25:13.562Z,3612.00
2017-10-02T11:26:13.530Z,3280.00
2017-10-02T11:27:13.498Z,3240.00
2017-10-02T11:28:13.465Z,2972.00
2017-10-02T11:29:13.433Z,2924.00
2017-10-02T11:30:13.413Z,2904.00
2017-10-02T11:31:13.368Z,2888.00
2017-10-02T11:32:13.334Z,3084.00
2017-10-02T11:33:13.334Z,2988.00
2017-10-02T11:34:13.269Z,3264.00
2017-10-02T11:35:13.237Z,3304.00
2017-10-02T11:36:13.205Z,3268.00
2017-10-02T11:37:13.169Z,3376.00
2017-10-02T11:38:13.135Z,3272.00
2017-10-02T11:39:13.102Z,3156.00
2017-10-02T11:40:13.079Z,3320.00
2017-10-02T11:41:13.036Z,3272.00
2017-10-02T11:42:13.002Z,3248.00
2017-10-02T11:43:12.970Z,3128.00
2017-10-02T11:44:12.940Z,3040.00
2017-10-02T11:45:12.906Z,3000.00
2017-10-02T11:46:12.874Z,3160.00
2017-10-02T11:47:12.841Z,2976.00
2017-10-02T11:48:12.809Z,2972.00
2017-10-02T11:49:12.771Z,2964.00
2017-10-02T11:50:12.738Z,3020.00
2017-10-02T11:51:12.702Z,3064.00
2017-10-02T11:52:12.678Z,3004.00
2017-10-02T11:53:12.638Z,3048.00
2017-10-02T11:54:12.619Z,2928.00
2017-10-02T11:55:12.577Z,2900.00
2017-10-02T11:56:12.541Z,2960.00
2017-10-02T11:57:12.509Z,2896.00
2017-10-02T11:58:12.471Z,2816.00
2017-10-02T11:59:12.436Z,2608.00
2017-10-02T12:00:12.409Z,2424.00
2017-10-02T12:01:12.377Z,2376.00
2017-10-02T12:02:12.339Z,2448.00
2017-10-02T12:03:12.306Z,2500.00
2017-10-02T12:04:12.293Z,2496.00
2017-10-02T12:05:12.232Z,2460.00
2017-10-02T12:06:12.220Z,2432.00
2017-10-02T12:07:12.167Z,2320.00
2017-10-02T12:08:12.182Z,2316.00
2017-10-02T12:09:12.106Z,2344.00
2017-10-02T12:10:12.067Z,2344.00
2017-10-02T12:11:12.035Z,2380.00
2017-10-02T12:12:11.997Z,2432.00
2017-10-02T12:13:11.998Z,2616.00
2017-10-02T12:14:11.939Z,2740.00
2017-10-02T12:15:11.911Z,2828.00
2017-10-02T12:16:11.864Z,2748.00
2017-10-02T12:17:11.871Z,2612.00
2017-10-02T12:18:11.792Z,2528.00
2017-10-02T12:19:11.772Z,2560.00
2017-10-02T12:20:11.723Z,2740.00
2017-10-02T12:21:11.691Z,3024.00
2017-10-02T12:22:11.659Z,3412.00
2017-10-02T12:23:11.670Z,3600.00
2017-10-02T12:24:11.620Z,3792.00
2017-10-02T12:25:11.588Z,3668.00
2017-10-02T12:26:11.522Z,3748.00
2017-10-02T12:27:11.509Z,3696.00
2017-10-02T12:28:11.457Z,3716.00
2017-10-02T12:29:11.423Z,3636.00
2017-10-02T12:30:11.382Z,3672.00
2017-10-02T12:31:11.356Z,3848.00